Terminal Aerodrome Forecast
Issued by NWS

Home | Current Version | Previous Version | Text Only | Print | Product List | Glossary On
Versions: 1 2 3 4 5 6 7 8 9 10 11 12 13 14 15 16 17 18 19
000
FTUS41 KBOX 221728
TAFBED
TAF
KBED 221728Z 2218/2318 27012KT P6SM FEW250
     FM230400 22008KT P6SM VCSH OVC050
     FM231000 20010KT P6SM OVC050
     FM231700 21012G20KT P6SM VCSH BKN070=

USA.gov is the U.S. government's official web portal to all federal, state and local government web resources and services.